createdAt,value
2023-02-22T00:00:16.139Z,0.00
2023-02-22T00:01:16.425Z,0.00
2023-02-22T00:02:16.177Z,0.00
2023-02-22T00:03:16.246Z,0.00
2023-02-22T00:04:16.192Z,0.00
2023-02-22T00:05:16.133Z,0.00
2023-02-22T00:06:16.095Z,0.00
2023-02-22T00:07:16.109Z,0.00
2023-02-22T00:08:16.071Z,0.00
2023-02-22T00:09:16.078Z,0.00
2023-02-22T00:10:16.037Z,0.00
2023-02-22T00:11:16.487Z,0.00
2023-02-22T00:12:16.019Z,0.00
2023-02-22T00:13:16.048Z,0.00
2023-02-22T00:14:16.016Z,0.00
2023-02-22T00:15:16.006Z,0.00
2023-02-22T00:16:15.992Z,0.00
2023-02-22T00:17:15.980Z,0.00
2023-02-22T00:18:15.967Z,0.00
2023-02-22T00:19:15.995Z,0.00
2023-02-22T00:20:17.826Z,0.00
2023-02-22T00:21:16.309Z,0.00
2023-02-22T00:22:15.918Z,0.00
2023-02-22T00:23:15.920Z,0.00
2023-02-22T00:24:15.919Z,0.00
2023-02-22T00:25:15.903Z,0.00
2023-02-22T00:26:15.897Z,0.00
2023-02-22T00:27:16.067Z,0.00
2023-02-22T00:28:15.855Z,0.00
2023-02-22T00:29:15.857Z,0.00
2023-02-22T00:30:15.885Z,0.00
2023-02-22T00:31:16.152Z,0.00
2023-02-22T00:32:15.966Z,0.00
2023-02-22T00:33:15.824Z,0.00
2023-02-22T00:34:15.797Z,0.00
2023-02-22T00:35:15.798Z,0.00
2023-02-22T00:36:15.793Z,0.00
2023-02-22T00:37:15.781Z,0.00
2023-02-22T00:38:15.756Z,0.00
2023-02-22T00:39:15.783Z,0.00
2023-02-22T00:40:15.733Z,0.00
2023-02-22T00:41:16.192Z,0.00
2023-02-22T00:42:15.709Z,0.00
2023-02-22T00:43:15.721Z,0.00
2023-02-22T00:44:15.702Z,0.00
2023-02-22T00:45:15.728Z,0.00
2023-02-22T00:46:15.722Z,0.00
2023-02-22T00:47:15.675Z,0.00
2023-02-22T00:48:15.653Z,0.00
2023-02-22T00:49:15.650Z,0.00
2023-02-22T00:50:15.675Z,0.00
2023-02-22T00:51:15.973Z,0.00
2023-02-22T00:52:15.615Z,0.00
2023-02-22T00:53:15.640Z,0.00
2023-02-22T00:54:15.594Z,0.00
2023-02-22T00:55:15.599Z,0.00
2023-02-22T00:56:15.599Z,0.00
2023-02-22T00:57:17.627Z,0.00
2023-02-22T00:58:15.571Z,0.00
2023-02-22T00:59:15.546Z,0.00
2023-02-22T01:00:15.554Z,0.00
2023-02-22T01:01:15.943Z,0.00
2023-02-22T01:02:15.617Z,0.00
2023-02-22T01:03:15.518Z,0.00
2023-02-22T01:04:15.513Z,0.00
2023-02-22T01:05:15.481Z,0.00
2023-02-22T01:06:15.490Z,0.00
2023-02-22T01:07:15.463Z,0.00
2023-02-22T01:08:15.506Z,0.00
2023-02-22T01:09:15.447Z,0.00
2023-02-22T01:10:15.464Z,0.00
2023-02-22T01:11:15.736Z,0.00
2023-02-22T01:12:15.489Z,0.00
2023-02-22T01:13:15.426Z,0.00
2023-02-22T01:14:15.433Z,0.00
2023-02-22T01:15:15.383Z,0.00
2023-02-22T01:16:15.445Z,0.00
2023-02-22T01:17:15.360Z,0.00
2023-02-22T01:18:15.361Z,0.00
2023-02-22T01:19:15.357Z,0.00
2023-02-22T01:20:15.361Z,0.00
2023-02-22T01:21:15.653Z,0.00
2023-02-22T01:22:15.338Z,0.00
2023-02-22T01:23:15.321Z,0.00
2023-02-22T01:24:15.308Z,0.00
2023-02-22T01:25:15.280Z,0.00
2023-02-22T01:26:15.276Z,0.00
2023-02-22T01:27:15.264Z,0.00
2023-02-22T01:28:15.314Z,0.00
2023-02-22T01:29:15.275Z,0.00
2023-02-22T01:30:15.312Z,0.00
2023-02-22T01:31:15.649Z,0.00
2023-02-22T01:32:15.264Z,0.00
2023-02-22T01:33:15.197Z,0.00
2023-02-22T01:34:15.216Z,0.00
2023-02-22T01:35:15.207Z,0.00
2023-02-22T01:36:15.193Z,0.00
2023-02-22T01:37:15.159Z,0.00
2023-02-22T01:38:15.215Z,0.00
2023-02-22T01:39:15.150Z,0.00
2023-02-22T01:40:15.138Z,0.00
2023-02-22T01:41:15.500Z,0.00
2023-02-22T01:42:15.122Z,0.00
2023-02-22T01:43:15.094Z,0.00
2023-02-22T01:44:15.102Z,0.00
2023-02-22T01:45:15.074Z,0.00
2023-02-22T01:46:15.121Z,0.00
2023-02-22T01:47:15.072Z,0.00
2023-02-22T01:48:15.062Z,0.00
2023-02-22T01:49:15.034Z,0.00
2023-02-22T01:50:15.048Z,0.00
2023-02-22T01:51:15.312Z,0.00
2023-02-22T01:52:15.027Z,0.00
2023-02-22T01:53:14.999Z,0.00
2023-02-22T01:54:15.004Z,0.00
2023-02-22T01:55:14.975Z,0.00
2023-02-22T01:56:14.976Z,0.00
2023-02-22T01:57:14.980Z,0.00
2023-02-22T01:58:14.959Z,0.00
2023-02-22T01:59:14.942Z,0.00
2023-02-22T02:00:14.956Z,0.00
2023-02-22T02:01:15.183Z,0.00
2023-02-22T02:02:14.921Z,0.00
2023-02-22T02:03:14.944Z,0.00
2023-02-22T02:04:14.974Z,0.00
2023-02-22T02:05:14.889Z,0.00
2023-02-22T02:06:14.892Z,0.00
2023-02-22T02:07:14.859Z,0.00
2023-02-22T02:08:14.910Z,0.00
2023-02-22T02:09:14.837Z,0.00
2023-02-22T02:10:14.844Z,0.00
2023-02-22T02:11:15.107Z,0.00
2023-02-22T02:12:14.821Z,0.00
2023-02-22T02:13:14.816Z,0.00
2023-02-22T02:14:14.840Z,0.00
2023-02-22T02:15:14.797Z,0.00
2023-02-22T02:16:14.783Z,0.00
2023-02-22T02:17:14.755Z,0.00
2023-02-22T02:18:14.798Z,0.00
2023-02-22T02:19:14.736Z,0.00
2023-02-22T02:20:14.783Z,0.00
2023-02-22T02:21:14.980Z,0.00
2023-02-22T02:22:14.734Z,0.00
2023-02-22T02:23:14.695Z,0.00
2023-02-22T02:24:14.717Z,0.00
2023-02-22T02:25:14.712Z,0.00
2023-02-22T02:26:14.703Z,0.00
2023-02-22T02:27:14.659Z,0.00
2023-02-22T02:28:14.665Z,0.00
2023-02-22T02:29:14.638Z,0.00
2023-02-22T02:30:14.713Z,0.00
2023-02-22T02:31:14.953Z,0.00
2023-02-22T02:32:14.765Z,0.00
2023-02-22T02:33:14.595Z,0.00
2023-02-22T02:34:14.598Z,0.00
2023-02-22T02:35:14.626Z,0.00
2023-02-22T02:36:14.604Z,0.00
2023-02-22T02:37:14.556Z,0.00
2023-02-22T02:38:14.589Z,0.00
2023-02-22T02:39:14.537Z,0.00
2023-02-22T02:40:14.638Z,0.00
2023-02-22T02:41:14.720Z,0.00
2023-02-22T02:42:14.517Z,0.00
2023-02-22T02:43:14.495Z,0.00
2023-02-22T02:44:14.517Z,0.00
2023-02-22T02:45:14.472Z,0.00
2023-02-22T02:46:14.484Z,0.00
2023-02-22T02:47:14.558Z,0.00
2023-02-22T02:48:14.472Z,0.00
2023-02-22T02:49:14.456Z,0.00
2023-02-22T02:50:14.440Z,0.00
2023-02-22T02:51:14.784Z,0.00
2023-02-22T02:52:14.442Z,0.00
2023-02-22T02:53:14.411Z,0.00
2023-02-22T02:54:14.392Z,0.00
2023-02-22T02:55:14.370Z,0.00
2023-02-22T02:56:14.408Z,0.00
2023-02-22T02:57:14.351Z,0.00
2023-02-22T02:58:14.376Z,0.00
2023-02-22T02:59:14.332Z,0.00
2023-02-22T03:00:14.339Z,0.00
2023-02-22T03:01:14.624Z,0.00
2023-02-22T03:02:14.337Z,0.00
2023-02-22T03:03:14.293Z,0.00
2023-02-22T03:04:14.297Z,0.00
2023-02-22T03:05:14.273Z,0.00
2023-02-22T03:06:14.283Z,0.00
2023-02-22T03:07:14.273Z,0.00
2023-02-22T03:08:14.258Z,0.00
2023-02-22T03:09:14.230Z,0.00
2023-02-22T03:10:14.237Z,0.00
2023-02-22T03:11:14.569Z,0.00
2023-02-22T03:12:14.228Z,0.00
2023-02-22T03:13:14.192Z,0.00
2023-02-22T03:14:14.201Z,0.00
2023-02-22T03:15:14.166Z,0.00
2023-02-22T03:16:14.212Z,0.00
2023-02-22T03:17:14.163Z,0.00
2023-02-22T03:18:14.165Z,0.00
2023-02-22T03:19:14.128Z,0.00
2023-02-22T03:20:14.153Z,0.00
2023-02-22T03:21:14.282Z,0.00
2023-02-22T03:22:14.112Z,0.00
2023-02-22T03:23:14.088Z,0.00
2023-02-22T03:24:14.085Z,0.00
2023-02-22T03:25:14.069Z,0.00
2023-02-22T03:26:14.101Z,0.00
2023-02-22T03:27:14.052Z,0.00
2023-02-22T03:28:14.052Z,0.00
2023-02-22T03:29:14.023Z,0.00
2023-02-22T03:30:14.050Z,0.00
2023-02-22T03:31:14.067Z,0.00
2023-02-22T03:32:14.059Z,0.00
2023-02-22T03:33:13.982Z,0.00
2023-02-22T03:34:13.997Z,0.00
2023-02-22T03:35:13.965Z,0.00
2023-02-22T03:36:13.984Z,0.00
2023-02-22T03:37:13.970Z,0.00
2023-02-22T03:38:13.951Z,0.00
2023-02-22T03:39:13.954Z,0.00
2023-02-22T03:40:13.998Z,0.00
2023-02-22T03:41:14.135Z,0.00
2023-02-22T03:42:13.918Z,0.00
2023-02-22T03:43:13.907Z,0.00
2023-02-22T03:44:13.910Z,0.00
2023-02-22T03:45:13.867Z,0.00
2023-02-22T03:46:13.876Z,0.00
2023-02-22T03:47:13.844Z,0.00
2023-02-22T03:48:13.854Z,0.00
2023-02-22T03:49:13.824Z,0.00
2023-02-22T03:50:13.851Z,0.00
2023-02-22T03:51:16.222Z,0.00
2023-02-22T03:52:13.819Z,0.00
2023-02-22T03:53:13.784Z,0.00
2023-02-22T03:54:13.786Z,0.00
2023-02-22T03:55:13.788Z,0.00
2023-02-22T03:56:13.784Z,0.00
2023-02-22T03:57:13.744Z,0.00
2023-02-22T03:58:13.749Z,0.00
2023-02-22T03:59:13.724Z,0.00
2023-02-22T04:00:13.738Z,0.00
2023-02-22T04:01:13.962Z,0.00
2023-02-22T04:02:13.705Z,0.00
2023-02-22T04:03:13.748Z,0.00
2023-02-22T04:04:13.707Z,0.00
2023-02-22T04:05:13.664Z,0.00
2023-02-22T04:06:13.675Z,0.00
2023-02-22T04:07:13.645Z,0.00
2023-02-22T04:08:13.670Z,0.00
2023-02-22T04:09:13.632Z,0.00
2023-02-22T04:10:13.635Z,0.00
2023-02-22T04:11:13.676Z,0.00
2023-02-22T04:12:13.614Z,0.00
2023-02-22T04:13:13.608Z,0.00
2023-02-22T04:14:13.586Z,0.00
2023-02-22T04:15:13.567Z,0.00
2023-02-22T04:16:13.653Z,0.00
2023-02-22T04:17:13.559Z,0.00
2023-02-22T04:18:13.554Z,0.00
2023-02-22T04:19:13.542Z,0.00
2023-02-22T04:20:13.580Z,0.00
2023-02-22T04:21:13.503Z,0.00
2023-02-22T04:22:13.505Z,0.00
2023-02-22T04:23:13.490Z,0.00
2023-02-22T04:24:13.485Z,0.00
2023-02-22T04:25:13.462Z,0.00
2023-02-22T04:26:13.508Z,0.00
2023-02-22T04:27:13.461Z,0.00
2023-02-22T04:28:13.407Z,1.00
2023-02-22T04:29:13.372Z,1.00
2023-02-22T04:30:13.417Z,1.00
2023-02-22T04:31:13.437Z,2.00
2023-02-22T04:32:13.415Z,2.00
2023-02-22T04:33:13.334Z,1.00
2023-02-22T04:34:13.343Z,1.00
2023-02-22T04:35:13.317Z,1.00
2023-02-22T04:36:13.309Z,1.00
2023-02-22T04:37:13.292Z,1.00
2023-02-22T04:38:13.325Z,1.00
2023-02-22T04:39:13.272Z,1.00
2023-02-22T04:40:13.278Z,1.00
2023-02-22T04:41:13.249Z,1.00
2023-02-22T04:42:13.263Z,1.00
2023-02-22T04:43:13.227Z,1.00
2023-02-22T04:44:13.252Z,1.00
2023-02-22T04:45:13.211Z,1.00
2023-02-22T04:46:13.291Z,1.00
2023-02-22T04:47:13.189Z,1.00
2023-02-22T04:48:13.196Z,1.00
2023-02-22T04:49:13.173Z,1.00
2023-02-22T04:50:13.191Z,1.00
2023-02-22T04:51:13.164Z,1.00
2023-02-22T04:52:13.188Z,1.00
2023-02-22T04:53:13.155Z,1.00
2023-02-22T04:54:13.132Z,1.00
2023-02-22T04:55:13.116Z,1.00
2023-02-22T04:56:13.114Z,1.00
2023-02-22T04:57:13.119Z,1.00
2023-02-22T04:58:13.142Z,1.00
2023-02-22T04:59:13.086Z,1.00
2023-02-22T05:00:13.137Z,0.00
2023-02-22T05:01:13.115Z,0.00
2023-02-22T05:02:13.120Z,0.00
2023-02-22T05:03:13.110Z,0.00
2023-02-22T05:04:13.101Z,0.00
2023-02-22T05:05:13.064Z,0.00
2023-02-22T05:06:13.077Z,0.00
2023-02-22T05:07:13.043Z,0.00
2023-02-22T05:08:13.043Z,0.00
2023-02-22T05:09:13.050Z,0.00
2023-02-22T05:10:13.026Z,0.00
2023-02-22T05:11:13.004Z,0.00
2023-02-22T05:12:13.017Z,0.00
2023-02-22T05:13:12.989Z,0.00
2023-02-22T05:14:12.970Z,0.00
2023-02-22T05:15:13.036Z,0.00
2023-02-22T05:16:13.057Z,0.00
2023-02-22T05:17:12.965Z,0.00
2023-02-22T05:18:12.935Z,0.00
2023-02-22T05:19:12.962Z,0.00
2023-02-22T05:20:12.907Z,0.00
2023-02-22T05:21:12.948Z,0.00
2023-02-22T05:22:12.893Z,0.00
2023-02-22T05:23:12.899Z,0.00
2023-02-22T05:24:12.869Z,0.00
2023-02-22T05:25:12.880Z,0.00
2023-02-22T05:26:12.854Z,0.00
2023-02-22T05:27:12.875Z,0.00
2023-02-22T05:28:12.863Z,0.00
2023-02-22T05:29:12.830Z,0.00
2023-02-22T05:30:12.856Z,0.00
2023-02-22T05:31:12.891Z,0.00
2023-02-22T05:32:12.812Z,0.00
2023-02-22T05:33:12.810Z,0.00
2023-02-22T05:34:12.769Z,0.00
2023-02-22T05:35:12.789Z,0.00
2023-02-22T05:36:12.790Z,0.00
2023-02-22T05:37:12.756Z,0.00
2023-02-22T05:38:12.733Z,0.00
2023-02-22T05:39:12.739Z,0.00
2023-02-22T05:40:12.716Z,0.00
2023-02-22T05:41:12.735Z,0.00
2023-02-22T05:42:12.693Z,0.00
2023-02-22T05:43:12.701Z,0.00
2023-02-22T05:44:12.677Z,0.00
2023-02-22T05:45:12.680Z,0.00
2023-02-22T05:46:12.690Z,0.00
2023-02-22T05:47:12.683Z,0.00
2023-02-22T05:48:12.639Z,0.00
2023-02-22T05:49:12.643Z,0.00
2023-02-22T05:50:12.633Z,0.00
2023-02-22T05:51:12.612Z,0.00
2023-02-22T05:52:12.592Z,0.00
2023-02-22T05:53:12.597Z,0.00
2023-02-22T05:54:12.566Z,0.00
2023-02-22T05:55:12.582Z,0.00
2023-02-22T05:56:12.569Z,0.00
2023-02-22T05:57:12.552Z,0.00
2023-02-22T05:58:12.548Z,0.00
2023-02-22T05:59:12.536Z,0.00
2023-02-22T06:00:12.528Z,0.00
2023-02-22T06:01:12.534Z,0.00
2023-02-22T06:02:12.512Z,0.00
2023-02-22T06:03:12.492Z,0.00
2023-02-22T06:04:12.482Z,0.00
2023-02-22T06:05:12.506Z,0.00
2023-02-22T06:06:12.443Z,0.00
2023-02-22T06:07:12.474Z,0.00
2023-02-22T06:08:12.439Z,0.00
2023-02-22T06:09:12.432Z,0.00
2023-02-22T06:10:12.407Z,0.00
2023-02-22T06:11:12.405Z,0.00
2023-02-22T06:12:12.401Z,0.00
2023-02-22T06:13:12.386Z,0.00
2023-02-22T06:14:12.369Z,0.00
2023-02-22T06:15:12.389Z,0.00
2023-02-22T06:16:12.411Z,0.00
2023-02-22T06:17:12.356Z,0.00
2023-02-22T06:18:12.325Z,0.00
2023-02-22T06:19:12.330Z,0.00
2023-02-22T06:20:12.303Z,0.00
2023-02-22T06:21:12.341Z,0.00
2023-02-22T06:22:12.296Z,0.00
2023-02-22T06:23:12.298Z,0.00
2023-02-22T06:24:12.266Z,0.00
2023-02-22T06:25:12.276Z,0.00
2023-02-22T06:26:12.265Z,0.00
2023-02-22T06:27:12.264Z,0.00
2023-02-22T06:28:12.228Z,0.00
2023-02-22T06:29:12.229Z,0.00
2023-02-22T06:30:13.345Z,0.00
2023-02-22T06:31:12.208Z,0.00
2023-02-22T06:32:12.246Z,0.00
2023-02-22T06:33:12.182Z,0.00
2023-02-22T06:34:12.178Z,0.00
2023-02-22T06:35:12.171Z,0.00
2023-02-22T06:36:12.144Z,0.00
2023-02-22T06:37:12.140Z,0.00
2023-02-22T06:38:12.139Z,0.00
2023-02-22T06:39:12.125Z,0.00
2023-02-22T06:40:12.049Z,1.00
2023-02-22T06:41:12.117Z,0.00
2023-02-22T06:42:12.119Z,0.00
2023-02-22T06:43:12.100Z,0.00
2023-02-22T06:44:12.080Z,0.00
2023-02-22T06:45:12.067Z,0.00
2023-02-22T06:46:11.995Z,1.00
2023-02-22T06:47:12.023Z,1.00
2023-02-22T06:48:11.982Z,1.00
2023-02-22T06:49:11.971Z,1.00
2023-02-22T06:50:11.940Z,1.00
2023-02-22T06:51:11.958Z,1.00
2023-02-22T06:52:11.924Z,1.00
2023-02-22T06:53:11.964Z,1.00
2023-02-22T06:54:11.917Z,1.00
2023-02-22T06:55:11.910Z,1.00
2023-02-22T06:56:11.884Z,1.00
2023-02-22T06:57:11.903Z,1.00
2023-02-22T06:58:11.864Z,1.00
2023-02-22T06:59:11.895Z,2.00
2023-02-22T07:00:11.864Z,2.00
2023-02-22T07:01:11.942Z,2.00
2023-02-22T07:02:11.884Z,0.00
2023-02-22T07:03:11.911Z,0.00
2023-02-22T07:04:11.809Z,2.00
2023-02-22T07:05:11.840Z,2.00
2023-02-22T07:06:11.802Z,2.00
2023-02-22T07:07:11.782Z,2.00
2023-02-22T07:08:11.766Z,2.00
2023-02-22T07:09:11.795Z,2.00
2023-02-22T07:10:11.742Z,2.00
2023-02-22T07:11:11.791Z,1.00
2023-02-22T07:12:11.720Z,2.00
2023-02-22T07:13:11.729Z,1.00
2023-02-22T07:14:11.704Z,1.00
2023-02-22T07:15:11.705Z,1.00
2023-02-22T07:16:11.721Z,1.00
2023-02-22T07:17:11.726Z,1.00
2023-02-22T07:18:11.687Z,1.00
2023-02-22T07:19:11.665Z,1.00
2023-02-22T07:20:11.665Z,3.00
2023-02-22T07:21:11.681Z,3.00
2023-02-22T07:22:11.621Z,3.00
2023-02-22T07:23:11.632Z,2.00
2023-02-22T07:24:11.600Z,1.00
2023-02-22T07:25:11.605Z,2.00
2023-02-22T07:26:11.595Z,2.00
2023-02-22T07:27:11.609Z,2.00
2023-02-22T07:28:11.568Z,2.00
2023-02-22T07:29:11.574Z,2.00
2023-02-22T07:30:11.552Z,2.00
2023-02-22T07:31:11.571Z,2.00
2023-02-22T07:32:11.655Z,2.00
2023-02-22T07:33:11.629Z,2.00
2023-02-22T07:34:11.502Z,2.00
2023-02-22T07:35:11.504Z,3.00
2023-02-22T07:36:11.480Z,3.00
2023-02-22T07:37:11.496Z,3.00
2023-02-22T07:38:11.465Z,3.00
2023-02-22T07:39:11.495Z,3.00
2023-02-22T07:40:11.468Z,3.00
2023-02-22T07:41:11.455Z,3.00
2023-02-22T07:42:11.418Z,3.00
2023-02-22T07:43:11.424Z,3.00
2023-02-22T07:44:11.402Z,2.00
2023-02-22T07:45:11.410Z,2.00
2023-02-22T07:46:11.500Z,2.00
2023-02-22T07:47:11.390Z,2.00
2023-02-22T07:48:11.363Z,2.00
2023-02-22T07:49:11.388Z,1.00
2023-02-22T07:50:11.343Z,5.00
2023-02-22T07:51:11.348Z,4.00
2023-02-22T07:52:11.319Z,1.00
2023-02-22T07:53:11.327Z,1.00
2023-02-22T07:54:11.315Z,4.00
2023-02-22T07:55:11.320Z,5.00
2023-02-22T07:56:11.304Z,3.00
2023-02-22T07:57:11.285Z,2.00
2023-02-22T07:58:11.265Z,5.00
2023-02-22T07:59:11.273Z,9.00
2023-02-22T08:00:11.238Z,8.00
2023-02-22T08:01:11.270Z,6.00
2023-02-22T08:02:11.246Z,6.00
2023-02-22T08:03:11.276Z,6.00
2023-02-22T08:04:11.207Z,7.00
2023-02-22T08:05:11.211Z,8.00
2023-02-22T08:06:11.208Z,6.00
2023-02-22T08:07:11.193Z,7.00
2023-02-22T08:08:11.165Z,11.00
2023-02-22T08:09:11.172Z,7.00
2023-02-22T08:10:11.145Z,18.00
2023-02-22T08:11:11.158Z,18.00
2023-02-22T08:12:11.146Z,18.00
2023-02-22T08:13:11.137Z,20.00
2023-02-22T08:14:11.101Z,18.00
2023-02-22T08:15:11.105Z,20.00
2023-02-22T08:16:11.098Z,17.00
2023-02-22T08:17:11.107Z,15.00
2023-02-22T08:18:11.073Z,15.00
2023-02-22T08:19:11.067Z,16.00
2023-02-22T08:20:11.042Z,18.00
2023-02-22T08:21:11.077Z,18.00
2023-02-22T08:22:11.033Z,19.00
2023-02-22T08:23:11.025Z,19.00
2023-02-22T08:24:10.996Z,18.00
2023-02-22T08:25:11.003Z,17.00
2023-02-22T08:26:10.977Z,15.00
2023-02-22T08:27:11.031Z,17.00
2023-02-22T08:28:10.954Z,17.00
2023-02-22T08:29:10.977Z,18.00
2023-02-22T08:30:10.972Z,17.00
2023-02-22T08:31:10.948Z,17.00
2023-02-22T08:32:11.116Z,17.00
2023-02-22T08:33:11.070Z,17.00
2023-02-22T08:34:10.896Z,22.00
2023-02-22T08:35:10.897Z,22.00
2023-02-22T08:36:10.874Z,21.00
2023-02-22T08:37:10.883Z,22.00
2023-02-22T08:38:10.860Z,18.00
2023-02-22T08:39:10.892Z,21.00
2023-02-22T08:40:12.807Z,15.00
2023-02-22T08:41:10.850Z,17.00
2023-02-22T08:42:10.811Z,16.00
2023-02-22T08:43:10.818Z,17.00
2023-02-22T08:44:10.795Z,16.00
2023-02-22T08:45:11.073Z,18.00
2023-02-22T08:46:10.801Z,18.00
2023-02-22T08:47:10.776Z,18.00
2023-02-22T08:48:10.751Z,18.00
2023-02-22T08:49:10.757Z,19.00
2023-02-22T08:50:10.750Z,20.00
2023-02-22T08:51:10.738Z,11.00
2023-02-22T08:52:10.712Z,11.00
2023-02-22T08:53:10.720Z,12.00
2023-02-22T08:54:10.695Z,8.00
2023-02-22T08:55:10.690Z,7.00
2023-02-22T08:56:10.690Z,9.00
2023-02-22T08:57:10.670Z,7.00
2023-02-22T08:58:10.690Z,5.00
2023-02-22T08:59:10.650Z,7.00
2023-02-22T09:00:10.625Z,6.00
2023-02-22T09:01:10.638Z,9.00
2023-02-22T09:02:10.651Z,11.00
2023-02-22T09:03:10.637Z,12.00
2023-02-22T09:04:10.595Z,7.00
2023-02-22T09:05:10.617Z,9.00
2023-02-22T09:06:10.602Z,9.00
2023-02-22T09:07:10.595Z,9.00
2023-02-22T09:08:10.586Z,5.00
2023-02-22T09:09:10.548Z,4.00
2023-02-22T09:10:10.559Z,9.00
2023-02-22T09:11:10.552Z,7.00
2023-02-22T09:12:10.504Z,2.00
2023-02-22T09:13:10.518Z,5.00
2023-02-22T09:14:10.500Z,7.00
2023-02-22T09:15:10.497Z,7.00
2023-02-22T09:16:10.506Z,7.00
2023-02-22T09:17:10.486Z,7.00
2023-02-22T09:18:10.452Z,5.00
2023-02-22T09:19:10.458Z,2.00
2023-02-22T09:20:10.450Z,5.00
2023-02-22T09:21:10.459Z,5.00
2023-02-22T09:22:10.405Z,5.00
2023-02-22T09:23:10.432Z,7.00
2023-02-22T09:24:10.387Z,7.00
2023-02-22T09:25:16.796Z,8.00
2023-02-22T09:26:10.435Z,7.00
2023-02-22T09:27:10.373Z,7.00
2023-02-22T09:28:10.353Z,7.00
2023-02-22T09:29:10.351Z,7.00
2023-02-22T09:30:10.368Z,9.00
2023-02-22T09:31:10.316Z,7.00
2023-02-22T09:32:10.593Z,7.00
2023-02-22T09:33:10.538Z,8.00
2023-02-22T09:34:10.299Z,8.00
2023-02-22T09:35:10.279Z,7.00
2023-02-22T09:36:10.284Z,10.00
2023-02-22T09:37:10.257Z,6.00
2023-02-22T09:38:10.287Z,8.00
2023-02-22T09:39:10.237Z,9.00
2023-02-22T09:40:10.243Z,11.00
2023-02-22T09:41:10.219Z,8.00
2023-02-22T09:42:10.218Z,7.00
2023-02-22T09:43:10.222Z,9.00
2023-02-22T09:44:10.209Z,7.00
2023-02-22T09:45:10.175Z,7.00
2023-02-22T09:46:10.270Z,7.00
2023-02-22T09:47:10.157Z,7.00
2023-02-22T09:48:21.804Z,6.00
2023-02-22T09:49:10.163Z,8.00
2023-02-22T09:50:10.145Z,6.00
2023-02-22T09:51:10.121Z,7.00
2023-02-22T09:52:10.122Z,10.00
2023-02-22T09:53:10.159Z,6.00
2023-02-22T09:54:10.099Z,5.00
2023-02-22T09:55:10.089Z,5.00
2023-02-22T09:56:10.085Z,6.00
2023-02-22T09:57:10.066Z,5.00
2023-02-22T09:58:10.073Z,6.00
2023-02-22T09:59:10.064Z,6.00
2023-02-22T10:00:10.050Z,8.00
2023-02-22T10:01:10.024Z,8.00
2023-02-22T10:02:10.106Z,6.00
2023-02-22T10:03:10.001Z,5.00
2023-02-22T10:04:10.006Z,6.00
2023-02-22T10:05:10.086Z,6.00
2023-02-22T10:06:09.988Z,6.00
2023-02-22T10:07:09.956Z,6.00
2023-02-22T10:08:09.957Z,6.00
2023-02-22T10:09:09.940Z,6.00
2023-02-22T10:10:10.006Z,7.00
2023-02-22T10:11:09.934Z,11.00
2023-02-22T10:12:09.920Z,11.00
2023-02-22T10:13:09.893Z,11.00
2023-02-22T10:14:09.910Z,11.00
2023-02-22T10:15:09.896Z,11.00
2023-02-22T10:16:09.904Z,11.00
2023-02-22T10:17:09.873Z,11.00
2023-02-22T10:18:09.858Z,4.00
2023-02-22T10:19:09.833Z,17.00
2023-02-22T10:20:09.845Z,19.00
2023-02-22T10:21:09.841Z,17.00
2023-02-22T10:22:09.821Z,17.00
2023-02-22T10:23:09.789Z,17.00
2023-02-22T10:24:09.797Z,17.00
2023-02-22T10:25:09.821Z,17.00
2023-02-22T10:26:09.778Z,19.00
2023-02-22T10:27:09.769Z,19.00
2023-02-22T10:28:09.753Z,17.00
2023-02-22T10:29:09.729Z,19.00
2023-02-22T10:30:22.359Z,15.00
2023-02-22T10:31:09.809Z,12.00
2023-02-22T10:32:09.855Z,14.00
2023-02-22T10:33:09.700Z,17.00
2023-02-22T10:34:09.700Z,17.00
2023-02-22T10:35:09.686Z,17.00
2023-02-22T10:36:09.684Z,17.00
2023-02-22T10:37:09.682Z,19.00
2023-02-22T10:38:09.652Z,17.00
2023-02-22T10:39:09.631Z,19.00
2023-02-22T10:40:09.631Z,15.00
2023-02-22T10:41:09.614Z,17.00
2023-02-22T10:42:09.619Z,15.00
2023-02-22T10:43:09.611Z,12.00
2023-02-22T10:44:09.594Z,15.00
2023-02-22T10:45:09.567Z,19.00
2023-02-22T10:46:09.646Z,19.00
2023-02-22T10:47:09.548Z,17.00
2023-02-22T10:48:09.555Z,16.00
2023-02-22T10:49:09.568Z,19.00
2023-02-22T10:50:09.527Z,21.00
2023-02-22T10:51:09.516Z,19.00
2023-02-22T10:52:09.532Z,21.00
2023-02-22T10:53:09.496Z,21.00
2023-02-22T10:54:09.499Z,21.00
2023-02-22T10:55:15.246Z,21.00
2023-02-22T10:56:09.553Z,19.00
2023-02-22T10:57:09.445Z,20.00
2023-02-22T10:58:09.443Z,29.00
2023-02-22T10:59:09.447Z,5.00
2023-02-22T11:00:09.469Z,19.00
2023-02-22T11:01:09.423Z,21.00
2023-02-22T11:02:09.417Z,19.00
2023-02-22T11:03:09.409Z,19.00
2023-02-22T11:04:09.394Z,17.00
2023-02-22T11:05:09.413Z,19.00
2023-02-22T11:06:09.363Z,21.00
2023-02-22T11:07:09.332Z,21.00
2023-02-22T11:08:09.339Z,19.00
2023-02-22T11:09:09.311Z,21.00
2023-02-22T11:10:09.348Z,19.00
2023-02-22T11:11:09.314Z,19.00
2023-02-22T11:12:09.317Z,19.00
2023-02-22T11:13:09.288Z,19.00
2023-02-22T11:14:09.278Z,18.00
2023-02-22T11:15:09.268Z,18.00
2023-02-22T11:16:09.279Z,23.00
2023-02-22T11:17:09.242Z,21.00
2023-02-22T11:18:09.233Z,21.00
2023-02-22T11:19:09.209Z,21.00
2023-02-22T11:20:09.205Z,20.00
2023-02-22T11:21:09.183Z,20.00
2023-02-22T11:22:09.213Z,20.00
2023-02-22T11:23:09.167Z,20.00
2023-02-22T11:24:09.184Z,19.00
2023-02-22T11:25:09.162Z,22.00
2023-02-22T11:26:09.180Z,25.00
2023-02-22T11:27:09.131Z,24.00
2023-02-22T11:28:09.155Z,24.00
2023-02-22T11:29:09.110Z,30.00
2023-02-22T11:30:09.226Z,26.00
2023-02-22T11:31:09.299Z,25.00
2023-02-22T11:32:09.150Z,22.00
2023-02-22T11:33:09.092Z,25.00
2023-02-22T11:34:09.102Z,25.00
2023-02-22T11:35:09.591Z,25.00
2023-02-22T11:36:09.053Z,25.00
2023-02-22T11:37:09.021Z,26.00
2023-02-22T11:38:09.041Z,25.00
2023-02-22T11:39:09.163Z,19.00
2023-02-22T11:40:09.005Z,21.00
2023-02-22T11:41:08.988Z,20.00
2023-02-22T11:42:09.002Z,20.00
2023-02-22T11:43:08.970Z,21.00
2023-02-22T11:44:09.010Z,20.00
2023-02-22T11:45:08.948Z,20.00
2023-02-22T11:46:08.953Z,19.00
2023-02-22T11:47:08.961Z,21.00
2023-02-22T11:48:08.919Z,23.00
2023-02-22T11:49:08.900Z,19.00
2023-02-22T11:50:08.910Z,19.00
2023-02-22T11:51:08.883Z,17.00
2023-02-22T11:52:08.886Z,21.00
2023-02-22T11:53:08.881Z,23.00
2023-02-22T11:54:08.878Z,21.00
2023-02-22T11:55:08.837Z,19.00
2023-02-22T11:56:08.849Z,19.00
2023-02-22T11:57:08.815Z,20.00
2023-02-22T11:58:08.814Z,19.00
2023-02-22T11:59:08.828Z,21.00
2023-02-22T12:00:08.800Z,20.00
2023-02-22T12:01:08.783Z,20.00
2023-02-22T12:02:08.786Z,21.00
2023-02-22T12:03:08.845Z,20.00
2023-02-22T12:04:08.934Z,19.00
2023-02-22T12:05:08.764Z,21.00
2023-02-22T12:06:08.737Z,22.00
2023-02-22T12:07:08.716Z,23.00
2023-02-22T12:08:19.251Z,25.00
2023-02-22T12:09:08.713Z,22.00
2023-02-22T12:10:08.701Z,24.00
2023-02-22T12:11:08.721Z,24.00
2023-02-22T12:12:08.684Z,22.00
2023-02-22T12:13:08.665Z,24.00
2023-02-22T12:14:08.665Z,24.00
2023-02-22T12:15:08.658Z,24.00
2023-02-22T12:16:08.657Z,24.00
2023-02-22T12:17:08.630Z,26.00
2023-02-22T12:18:08.616Z,25.00
2023-02-22T12:19:08.603Z,24.00
2023-02-22T12:20:08.591Z,22.00
2023-02-22T12:21:08.573Z,25.00
2023-02-22T12:22:08.575Z,25.00
2023-02-22T12:23:08.565Z,19.00
2023-02-22T12:24:08.557Z,22.00
2023-02-22T12:25:10.255Z,23.00
2023-02-22T12:26:10.767Z,23.00
2023-02-22T12:27:08.508Z,26.00
2023-02-22T12:28:19.043Z,23.00
2023-02-22T12:29:08.493Z,24.00
2023-02-22T12:30:08.535Z,24.00
2023-02-22T12:31:08.538Z,24.00
2023-02-22T12:32:08.600Z,23.00
2023-02-22T12:33:08.457Z,25.00
2023-02-22T12:34:08.577Z,26.00
2023-02-22T12:35:08.578Z,26.00
2023-02-22T12:36:08.485Z,26.00
2023-02-22T12:37:08.428Z,24.00
2023-02-22T12:38:08.414Z,24.00
2023-02-22T12:39:08.448Z,24.00
2023-02-22T12:40:08.494Z,24.00
2023-02-22T12:41:08.410Z,26.00
2023-02-22T12:42:08.406Z,26.00
2023-02-22T12:43:08.372Z,22.00
2023-02-22T12:44:08.357Z,22.00
2023-02-22T12:45:10.402Z,24.00
2023-02-22T12:46:08.378Z,22.00
2023-02-22T12:47:08.326Z,26.00
2023-02-22T12:48:08.314Z,25.00
2023-02-22T12:49:08.295Z,22.00
2023-02-22T12:50:08.289Z,23.00
2023-02-22T12:51:08.345Z,21.00
2023-02-22T12:52:20.898Z,20.00
2023-02-22T12:53:08.277Z,20.00
2023-02-22T12:54:08.256Z,20.00
2023-02-22T12:55:08.255Z,24.00
2023-02-22T12:56:08.231Z,19.00
2023-02-22T12:57:08.265Z,17.00
2023-02-22T12:58:08.216Z,21.00
2023-02-22T12:59:08.222Z,21.00
2023-02-22T13:00:08.196Z,21.00
2023-02-22T13:01:08.164Z,21.00
2023-02-22T13:02:08.187Z,21.00
2023-02-22T13:03:08.160Z,21.00
2023-02-22T13:04:19.709Z,13.00
2023-02-22T13:05:08.208Z,17.00
2023-02-22T13:06:08.133Z,18.00
2023-02-22T13:07:08.166Z,15.00
2023-02-22T13:08:08.114Z,14.00
2023-02-22T13:09:08.102Z,20.00
2023-02-22T13:10:08.100Z,18.00